Avondale, Louisiana
Current Conditions -  °F | °C
As of 5:53 PM on Sunday 21 Dec 2014 (Local Time) from KMSY Reporting Station
Haze Haze  
Wind Chill: 55°   Ceiling: 9000
Heat Index: 55°   Visibility: 6mi
Dew Point: 51°   Wind: 7mph
Humidity: 86%   Direction: 50°NE
Pressure: 29.99"   Gusts: NA
Location:  29.9137°N, 90.2078°W
Report Text: KMSY 212353Z 05006KT 6SM BR FEW008 BKN090 13/11 A2999 RMK AO2 SLP157 T01280106 10144 20128 58010
Loading
Personal Weather Stations






























Interactive Weather Map New forecast layout! Learn more

10-Day Weather Forecast

Advertisements
Track Severe Weather on mobile